Time;durP1;ratioP1;P1;durP2;ratioP2;P2;SDS_P1;SDS_P2;PMS_P1;PMS_P2;Temp;Humidity;BMP_temperature;BMP_pressure;BME280_temperature;BME280_humidity;BME280_pressure;Samples;Min_cycle;Max_cycle;Signal;HPM_P1;HPM_P2
2021/11/21 00:01:58;;;;;;;16.60;11.80;;;10.30;88.30;;;;;;5005025;28;20037;-81
2021/11/21 00:04:24;;;;;;;16.65;11.52;;;10.30;88.30;;;;;;5006498;28;20061;-81
2021/11/21 00:06:50;;;;;;;16.00;11.50;;;10.30;88.30;;;;;;5006742;28;20032;-81
2021/11/21 00:09:16;;;;;;;19.30;14.05;;;10.30;88.30;;;;;;5007051;28;20475;-80
2021/11/21 00:11:41;;;;;;;18.35;14.05;;;10.20;88.20;;;;;;5006810;28;20018;-81
2021/11/21 00:14:07;;;;;;;18.73;12.00;;;10.30;88.30;;;;;;5007167;28;20482;-80
2021/11/21 00:16:33;;;;;;;17.75;12.02;;;10.20;88.20;;;;;;5007720;28;20029;-81
2021/11/21 00:18:59;;;;;;;13.93;9.95;;;10.20;88.20;;;;;;5006709;28;20047;-80
2021/11/21 00:21:25;;;;;;;17.25;12.73;;;10.20;88.20;;;;;;5007414;28;20026;-81
2021/11/21 00:23:51;;;;;;;18.38;13.13;;;10.20;88.20;;;;;;5007214;28;20384;-81
2021/11/21 00:26:16;;;;;;;21.33;14.90;;;10.20;88.30;;;;;;5006658;28;20181;-80
2021/11/21 00:28:42;;;;;;;19.65;13.77;;;10.20;88.20;;;;;;5006891;28;20026;-80
2021/11/21 00:31:08;;;;;;;13.85;9.68;;;10.20;88.20;;;;;;5007299;28;20483;-80
2021/11/21 00:33:33;;;;;;;19.13;13.80;;;10.20;88.20;;;;;;5005669;28;20456;-81
2021/11/21 00:35:59;;;;;;;13.82;10.60;;;10.20;88.20;;;;;;5006792;28;20074;-80
2021/11/21 00:38:25;;;;;;;18.00;12.63;;;10.20;88.20;;;;;;5006957;28;20037;-81
2021/11/21 00:40:52;;;;;;;12.27;9.70;;;10.20;88.20;;;;;;5006598;28;20054;-81
2021/11/21 00:43:19;;;;;;;14.05;10.68;;;10.20;88.30;;;;;;5006683;28;20404;-80
2021/11/21 00:45:45;;;;;;;13.80;10.15;;;10.10;88.30;;;;;;5006652;28;20033;-81
2021/11/21 00:48:11;;;;;;;15.63;11.73;;;10.10;88.40;;;;;;5006639;28;20019;-81
2021/11/21 00:50:36;;;;;;;11.18;8.00;;;10.10;88.30;;;;;;5006651;28;20026;-81
2021/11/21 00:53:03;;;;;;;11.18;8.60;;;10.10;88.40;;;;;;5006600;28;20022;-80
2021/11/21 00:55:35;;;;;;;14.60;10.32;;;10.20;88.40;;;;;;5038212;28;20751;-81
2021/11/21 00:58:05;;;;;;;13.95;9.95;;;10.10;88.40;;;;;;5005689;28;20030;-79
2021/11/21 01:00:32;;;;;;;13.38;9.48;;;10.20;88.40;;;;;;5007310;28;20064;-79
2021/11/21 01:02:58;;;;;;;13.48;9.98;;;10.20;88.40;;;;;;5006919;28;20038;-79
2021/11/21 01:05:24;;;;;;;14.70;10.40;;;10.20;88.30;;;;;;5005383;28;20376;-79
2021/11/21 01:07:50;;;;;;;17.17;12.10;;;10.20;88.30;;;;;;5007073;28;20037;-79
2021/11/21 01:10:18;;;;;;;16.88;12.00;;;10.20;88.20;;;;;;5006593;28;20166;-80
2021/11/21 01:12:44;;;;;;;15.90;10.93;;;10.20;88.20;;;;;;5009723;28;20109;-79
2021/11/21 01:15:13;;;;;;;15.68;10.65;;;10.20;88.20;;;;;;5010492;28;20029;-80
2021/11/21 01:17:39;;;;;;;15.25;10.50;;;10.20;88.20;;;;;;5010152;28;20473;-80
2021/11/21 01:20:08;;;;;;;17.58;12.43;;;10.30;88.20;;;;;;5009674;28;20030;-80
2021/11/21 01:22:35;;;;;;;20.80;13.68;;;10.20;88.20;;;;;;5010098;28;20026;-79
2021/11/21 01:25:01;;;;;;;18.55;13.27;;;10.20;88.20;;;;;;5009899;28;20083;-80
2021/11/21 01:27:26;;;;;;;19.48;14.20;;;10.20;88.30;;;;;;5009943;28;20113;-80
2021/11/21 01:29:52;;;;;;;13.82;9.85;;;10.20;88.30;;;;;;5008633;28;20547;-81
2021/11/21 01:32:18;;;;;;;18.38;12.70;;;10.20;88.40;;;;;;5009661;28;20022;-81
2021/11/21 01:34:43;;;;;;;19.98;13.68;;;10.20;88.40;;;;;;5009962;28;20032;-81
2021/11/21 01:37:09;;;;;;;15.43;11.23;;;10.20;88.30;;;;;;5009610;28;20022;-81
2021/11/21 01:39:34;;;;;;;17.52;12.43;;;10.20;88.30;;;;;;5009820;28;20034;-81
2021/11/21 01:42:00;;;;;;;21.08;14.55;;;10.20;88.40;;;;;;5009988;28;20079;-81
2021/11/21 01:44:26;;;;;;;16.83;10.68;;;10.20;88.50;;;;;;5008079;28;20026;-80
2021/11/21 01:46:52;;;;;;;14.15;9.52;;;10.10;88.50;;;;;;5009771;28;20072;-81
2021/11/21 01:49:19;;;;;;;16.70;11.93;;;10.10;88.60;;;;;;5009204;28;20027;-80
2021/11/21 01:51:45;;;;;;;14.82;10.25;;;10.20;88.60;;;;;;5018400;28;20458;-80
2021/11/21 01:54:13;;;;;;;17.30;12.10;;;10.20;88.60;;;;;;5052856;28;20018;-80
2021/11/21 01:56:40;;;;;;;18.55;12.52;;;10.20;88.60;;;;;;5057322;28;20029;-80
2021/11/21 01:59:06;;;;;;;14.32;10.15;;;10.20;88.60;;;;;;5071245;28;20034;-80
2021/11/21 02:01:32;;;;;;;16.60;11.88;;;10.20;88.50;;;;;;5053484;28;20395;-80
2021/11/21 02:03:57;;;;;;;16.35;10.95;;;10.30;88.60;;;;;;5041237;28;20013;-80
2021/11/21 02:06:23;;;;;;;18.90;13.15;;;10.30;88.50;;;;;;5042514;28;20397;-80
2021/11/21 02:08:53;;;;;;;20.83;13.73;;;10.30;88.50;;;;;;5047764;28;20055;-80
2021/11/21 02:11:20;;;;;;;14.52;10.27;;;10.30;88.50;;;;;;5062937;28;20038;-80
2021/11/21 02:13:48;;;;;;;20.25;13.82;;;10.30;88.40;;;;;;5043037;28;20030;-80
2021/11/21 02:16:14;;;;;;;16.98;12.10;;;10.20;88.40;;;;;;5045271;28;20368;-80
2021/11/21 02:18:40;;;;;;;21.05;14.18;;;10.30;88.40;;;;;;5067910;28;20188;-79
2021/11/21 02:21:06;;;;;;;19.92;13.45;;;10.20;88.40;;;;;;5040571;28;20117;-79
2021/11/21 02:23:32;;;;;;;18.00;12.27;;;10.20;88.40;;;;;;5009883;28;20022;-79
2021/11/21 02:25:58;;;;;;;18.23;12.20;;;10.30;88.50;;;;;;5009712;28;20591;-79
2021/11/21 02:28:24;;;;;;;20.00;13.30;;;10.30;88.40;;;;;;5009994;28;20034;-78
2021/11/21 02:30:50;;;;;;;17.38;12.60;;;10.30;88.30;;;;;;5008819;28;20379;-79
2021/11/21 02:33:19;;;;;;;16.30;11.25;;;10.30;88.20;;;;;;5009669;28;20387;-79
2021/11/21 02:35:47;;;;;;;17.35;11.98;;;10.30;88.20;;;;;;5010149;28;20383;-78
2021/11/21 02:38:15;;;;;;;16.20;11.50;;;10.30;88.30;;;;;;5008129;28;20104;-78
2021/11/21 02:40:41;;;;;;;21.50;14.98;;;10.30;88.40;;;;;;5010461;28;20392;-79
2021/11/21 02:43:06;;;;;;;19.33;12.95;;;10.30;88.40;;;;;;5009387;28;20030;-79
2021/11/21 02:45:32;;;;;;;17.35;12.02;;;10.30;88.30;;;;;;5009863;28;20049;-79
2021/11/21 02:47:58;;;;;;;17.58;12.15;;;10.30;88.40;;;;;;5008977;28;20028;-79
2021/11/21 02:50:25;;;;;;;20.35;13.00;;;10.40;88.40;;;;;;5008873;28;20030;-79
2021/11/21 02:52:52;;;;;;;24.65;15.50;;;10.40;88.30;;;;;;5008104;28;20468;-81
2021/11/21 02:55:19;;;;;;;18.50;12.43;;;10.30;88.20;;;;;;5008326;28;20117;-81
2021/11/21 02:57:45;;;;;;;20.08;12.70;;;10.30;88.30;;;;;;5009605;28;20105;-81
2021/11/21 03:00:14;;;;;;;22.40;14.52;;;10.30;88.30;;;;;;5009452;28;21496;-81
2021/11/21 03:02:42;;;;;;;15.70;10.45;;;10.30;88.30;;;;;;5009637;28;20218;-81
2021/11/21 03:05:08;;;;;;;20.42;13.52;;;10.30;88.40;;;;;;5009335;28;20037;-80
2021/11/21 03:07:34;;;;;;;20.52;13.70;;;10.20;88.30;;;;;;5009422;28;20037;-80
2021/11/21 03:09:59;;;;;;;23.00;15.25;;;10.30;88.40;;;;;;5009415;28;20060;-80
2021/11/21 03:12:25;;;;;;;21.00;13.82;;;10.30;88.40;;;;;;5009317;28;20429;-81
2021/11/21 03:14:52;;;;;;;21.80;14.00;;;10.30;88.40;;;;;;5040618;28;20133;-81
2021/11/21 03:17:18;;;;;;;21.98;14.98;;;10.20;89.00;;;;;;5008136;28;20034;-81
2021/11/21 03:19:44;;;;;;;20.90;14.13;;;10.30;88.50;;;;;;5008813;28;20158;-81
2021/11/21 03:22:10;;;;;;;22.38;14.07;;;10.30;88.40;;;;;;5009322;28;20022;-81
2021/11/21 03:24:35;;;;;;;22.40;14.02;;;10.20;88.50;;;;;;5008887;28;20527;-80
2021/11/21 03:27:01;;;;;;;27.52;17.45;;;10.20;88.50;;;;;;5008992;28;20108;-81
2021/11/21 03:29:27;;;;;;;22.55;13.88;;;10.20;88.60;;;;;;5009160;28;20371;-80
2021/11/21 03:31:52;;;;;;;24.05;15.55;;;10.20;88.60;;;;;;5008044;28;20487;-80
2021/11/21 03:34:18;;;;;;;20.10;13.45;;;10.20;88.60;;;;;;5008323;28;20043;-80
2021/11/21 03:36:44;;;;;;;24.05;15.40;;;10.20;88.60;;;;;;5007476;28;20044;-79
2021/11/21 03:39:09;;;;;;;21.65;14.10;;;10.20;88.50;;;;;;5008363;28;20494;-79
2021/11/21 03:41:37;;;;;;;17.55;11.20;;;10.20;88.60;;;;;;5008900;28;20026;-79
2021/11/21 03:44:04;;;;;;;24.40;15.45;;;10.20;88.60;;;;;;5008986;28;20029;-79
2021/11/21 03:46:30;;;;;;;21.40;14.02;;;10.20;88.60;;;;;;4996672;28;20073;-80
2021/11/21 03:48:55;;;;;;;21.90;13.85;;;10.20;88.60;;;;;;5007412;28;20446;-79
2021/11/21 03:51:21;;;;;;;15.50;10.63;;;10.20;88.60;;;;;;5008149;28;20042;-79
2021/11/21 03:53:46;;;;;;;23.75;14.60;;;10.20;88.70;;;;;;5008644;28;20050;-79
2021/11/21 03:56:12;;;;;;;25.45;15.27;;;10.20;88.70;;;;;;5008909;28;20129;-80
2021/11/21 03:58:38;;;;;;;23.27;14.38;;;10.20;88.70;;;;;;5007852;28;20017;-80
2021/11/21 04:01:05;;;;;;;17.95;11.50;;;10.20;88.60;;;;;;5006914;28;20075;-79
2021/11/21 04:03:30;;;;;;;18.98;12.25;;;10.20;88.70;;;;;;5006035;28;20074;-79
2021/11/21 04:05:56;;;;;;;22.27;14.38;;;10.20;88.60;;;;;;5007999;28;20046;-81
2021/11/21 04:08:21;;;;;;;15.10;9.63;;;10.20;88.60;;;;;;5007375;28;20037;-79
2021/11/21 04:10:47;;;;;;;21.65;13.43;;;10.20;88.60;;;;;;5008113;28;20026;-79
2021/11/21 04:13:13;;;;;;;14.52;9.45;;;10.20;88.70;;;;;;5006292;28;20058;-80
2021/11/21 04:15:38;;;;;;;18.13;11.82;;;10.20;88.70;;;;;;5007582;28;20392;-80
2021/11/21 04:18:04;;;;;;;20.65;13.30;;;10.20;88.80;;;;;;5007412;28;20030;-80
2021/11/21 04:20:30;;;;;;;20.77;13.38;;;10.20;88.80;;;;;;5005253;28;20037;-80
2021/11/21 04:22:55;;;;;;;21.15;13.60;;;10.20;88.90;;;;;;5026123;28;20020;-79
2021/11/21 04:25:21;;;;;;;20.25;11.48;;;10.20;88.90;;;;;;5034388;28;20056;-79
2021/11/21 04:27:47;;;;;;;15.60;10.20;;;10.20;89.00;;;;;;5043534;28;20056;-80
2021/11/21 04:30:15;;;;;;;16.13;10.43;;;10.30;88.90;;;;;;5052756;28;20435;-79
2021/11/21 04:32:42;;;;;;;15.48;10.57;;;10.30;88.80;;;;;;5043391;28;20488;-79
2021/11/21 04:35:10;;;;;;;18.52;11.68;;;10.30;88.70;;;;;;5047392;28;20464;-79
2021/11/21 04:37:36;;;;;;;16.42;10.38;;;10.30;89.30;;;;;;5043358;28;20269;-79
2021/11/21 04:40:03;;;;;;;15.80;10.27;;;10.30;88.70;;;;;;5056688;28;20104;-79
2021/11/21 04:42:29;;;;;;;13.77;9.25;;;10.30;88.70;;;;;;5043932;28;20030;-80
2021/11/21 04:44:55;;;;;;;14.30;9.25;;;10.40;88.70;;;;;;5057936;28;20028;-79
2021/11/21 04:47:20;;;;;;;13.70;9.20;;;10.40;88.70;;;;;;5065947;27;20032;-79
2021/11/21 04:49:46;;;;;;;12.20;7.32;;;10.40;88.70;;;;;;5048945;28;20037;-77
2021/11/21 04:52:12;;;;;;;15.30;9.75;;;10.40;88.70;;;;;;5046255;28;20338;-77
2021/11/21 04:54:37;;;;;;;13.00;8.70;;;10.50;88.60;;;;;;5010106;28;20053;-77
2021/11/21 04:57:05;;;;;;;14.82;9.90;;;10.40;88.50;;;;;;5012812;28;20061;-77
2021/11/21 04:59:31;;;;;;;10.75;7.65;;;10.40;88.50;;;;;;5040932;28;20037;-77
2021/11/21 05:01:57;;;;;;;11.95;7.88;;;10.40;88.60;;;;;;5072597;28;20049;-77
2021/11/21 05:04:23;;;;;;;11.40;7.80;;;10.50;88.60;;;;;;5066450;28;20024;-78
2021/11/21 05:06:48;;;;;;;13.10;7.80;;;10.50;88.60;;;;;;5044485;28;20038;-78
2021/11/21 05:09:14;;;;;;;11.20;7.40;;;10.60;88.50;;;;;;5063003;28;20034;-78
2021/11/21 05:11:39;;;;;;;10.32;7.10;;;10.50;88.40;;;;;;5061724;28;20419;-78
2021/11/21 05:14:06;;;;;;;10.05;6.78;;;10.60;88.40;;;;;;5047165;28;20030;-78
2021/11/21 05:16:35;;;;;;;10.40;7.03;;;10.60;88.40;;;;;;5062696;28;20024;-78
2021/11/21 05:19:03;;;;;;;9.15;6.25;;;10.60;88.30;;;;;;5027051;28;20447;-78
2021/11/21 05:21:29;;;;;;;9.10;6.07;;;10.70;88.30;;;;;;5027801;28;20026;-78
2021/11/21 05:23:54;;;;;;;8.77;5.88;;;10.70;88.20;;;;;;5087342;28;20434;-79
2021/11/21 05:26:22;;;;;;;9.10;5.88;;;10.70;88.20;;;;;;5040120;28;20122;-79
2021/11/21 05:28:47;;;;;;;8.93;5.75;;;10.80;88.10;;;;;;5038789;28;20026;-79
2021/11/21 05:31:13;;;;;;;8.43;5.68;;;10.80;88.00;;;;;;5056682;28;20035;-79
2021/11/21 05:33:38;;;;;;;10.02;6.57;;;10.80;87.90;;;;;;5018637;28;20022;-79
2021/11/21 05:36:04;;;;;;;8.77;6.03;;;10.90;88.00;;;;;;5021453;28;20116;-79
2021/11/21 05:38:30;;;;;;;9.57;6.32;;;10.80;87.90;;;;;;5043286;28;20027;-79
2021/11/21 05:40:55;;;;;;;7.18;5.05;;;10.80;87.90;;;;;;5087313;28;20031;-79
2021/11/21 05:43:21;;;;;;;8.02;5.47;;;10.90;87.90;;;;;;5056566;28;20024;-79
2021/11/21 05:45:46;;;;;;;7.63;5.20;;;10.80;87.80;;;;;;5074243;28;20034;-80
2021/11/21 05:48:12;;;;;;;8.60;5.65;;;10.80;87.80;;;;;;5073459;28;20025;-79
2021/11/21 05:50:38;;;;;;;8.15;5.70;;;10.80;87.80;;;;;;5010821;28;20099;-79
2021/11/21 05:53:03;;;;;;;7.18;5.00;;;10.80;87.80;;;;;;5009464;28;20018;-78
2021/11/21 05:55:29;;;;;;;8.15;5.15;;;10.90;87.90;;;;;;5009404;28;20471;-79
2021/11/21 05:57:54;;;;;;;7.70;5.32;;;10.90;87.80;;;;;;5009209;28;20025;-78
2021/11/21 06:00:22;;;;;;;6.70;4.60;;;10.90;87.70;;;;;;5009316;28;20037;-78
2021/11/21 06:02:48;;;;;;;6.82;5.00;;;11.00;87.90;;;;;;5009636;28;20479;-78
2021/11/21 06:05:14;;;;;;;7.65;5.03;;;10.90;87.70;;;;;;5009114;28;20381;-78
2021/11/21 06:07:40;;;;;;;6.78;4.55;;;10.90;87.70;;;;;;5009725;28;20044;-78
2021/11/21 06:10:07;;;;;;;7.30;4.90;;;10.90;87.70;;;;;;5008733;28;20022;-78
2021/11/21 06:12:32;;;;;;;7.53;5.00;;;10.90;87.70;;;;;;5009486;28;20033;-77
2021/11/21 06:14:58;;;;;;;6.60;4.55;;;10.90;88.30;;;;;;5009057;28;20083;-78
2021/11/21 06:17:24;;;;;;;6.25;4.78;;;10.90;87.70;;;;;;5009272;28;20120;-78
2021/11/21 06:19:49;;;;;;;6.43;4.28;;;10.90;87.70;;;;;;5007287;28;20018;-78
2021/11/21 06:22:17;;;;;;;6.00;4.05;;;10.90;87.70;;;;;;5007558;28;20257;-78
2021/11/21 06:24:44;;;;;;;6.47;4.43;;;10.90;87.60;;;;;;5007649;28;20060;-78
2021/11/21 06:27:11;;;;;;;6.93;4.32;;;10.90;88.30;;;;;;5009640;28;20030;-78
2021/11/21 06:29:36;;;;;;;5.72;3.80;;;10.90;87.60;;;;;;5002240;28;20108;-77
2021/11/21 06:32:03;;;;;;;5.60;4.10;;;11.00;87.70;;;;;;5009194;28;20108;-77
2021/11/21 06:34:28;;;;;;;5.30;3.83;;;10.90;87.60;;;;;;5009032;28;20067;-78
2021/11/21 06:36:54;;;;;;;5.40;3.47;;;10.90;87.60;;;;;;5009406;28;20022;-78
2021/11/21 06:39:19;;;;;;;6.18;3.85;;;11.00;87.60;;;;;;5007921;28;20026;-78
2021/11/21 06:41:45;;;;;;;6.00;3.63;;;11.00;87.60;;;;;;5007738;28;20053;-78
2021/11/21 06:44:11;;;;;;;5.97;3.50;;;10.90;87.50;;;;;;5007388;28;20045;-79
2021/11/21 06:46:37;;;;;;;4.82;3.10;;;11.00;87.50;;;;;;5007819;28;20509;-78
2021/11/21 06:49:03;;;;;;;4.40;3.13;;;11.00;87.60;;;;;;5007296;28;20050;-78
2021/11/21 06:51:29;;;;;;;5.70;3.15;;;11.00;87.50;;;;;;5007630;28;20033;-79
2021/11/21 06:53:55;;;;;;;4.93;3.38;;;11.00;87.50;;;;;;5043023;28;20141;-79
2021/11/21 06:56:21;;;;;;;4.88;3.42;;;11.00;87.50;;;;;;5067512;28;20080;-79
2021/11/21 06:58:47;;;;;;;4.78;3.28;;;11.00;87.50;;;;;;5062112;28;20122;-78
2021/11/21 07:01:13;;;;;;;4.85;2.97;;;11.00;87.40;;;;;;5029418;28;20033;-79
2021/11/21 07:03:39;;;;;;;4.63;3.20;;;11.00;87.40;;;;;;5041605;28;20042;-81
2021/11/21 07:06:05;;;;;;;5.00;3.33;;;11.00;87.50;;;;;;5022301;28;20074;-80
2021/11/21 07:08:31;;;;;;;5.05;3.28;;;11.00;87.50;;;;;;5062852;28;20028;-80
2021/11/21 07:10:56;;;;;;;4.43;3.10;;;11.00;87.50;;;;;;5041478;28;20151;-80
2021/11/21 07:13:22;;;;;;;4.35;3.00;;;11.00;87.50;;;;;;5060091;28;20385;-80
2021/11/21 07:15:49;;;;;;;3.90;3.17;;;11.00;87.40;;;;;;5039273;28;20063;-80
2021/11/21 07:18:14;;;;;;;4.47;2.83;;;11.00;87.40;;;;;;5054997;28;20030;-79
2021/11/21 07:20:40;;;;;;;3.67;2.63;;;11.00;87.40;;;;;;5067900;28;20397;-80
2021/11/21 07:23:06;;;;;;;4.57;2.85;;;11.00;87.40;;;;;;5014379;28;20371;-80
2021/11/21 07:25:32;;;;;;;4.47;2.97;;;11.00;87.30;;;;;;5006752;28;20055;-79
2021/11/21 07:27:58;;;;;;;4.05;2.78;;;11.00;87.40;;;;;;5006263;28;20022;-80
2021/11/21 07:30:24;;;;;;;4.85;2.60;;;11.00;87.50;;;;;;5008038;28;20033;-79
2021/11/21 07:32:51;;;;;;;5.70;2.40;;;11.00;87.50;;;;;;5008017;28;20353;-79
2021/11/21 07:35:18;;;;;;;5.90;2.80;;;11.00;87.40;;;;;;5007826;28;20437;-79
2021/11/21 07:37:45;;;;;;;4.70;2.80;;;11.00;87.30;;;;;;5008593;28;20444;-79
2021/11/21 07:40:12;;;;;;;4.95;2.38;;;10.90;87.30;;;;;;5007488;28;20053;-79
2021/11/21 07:42:39;;;;;;;4.25;2.17;;;11.00;87.50;;;;;;5007940;28;20484;-81
2021/11/21 07:45:07;;;;;;;4.10;2.50;;;10.90;87.40;;;;;;5007736;28;20380;-78
2021/11/21 07:47:32;;;;;;;5.25;2.17;;;10.90;87.30;;;;;;5008157;28;20025;-78
2021/11/21 07:49:58;;;;;;;3.40;1.90;;;10.90;87.30;;;;;;5006164;28;20483;-79
2021/11/21 07:52:25;;;;;;;3.80;1.80;;;10.90;87.40;;;;;;5007913;28;20036;-78
2021/11/21 07:54:51;;;;;;;3.17;1.90;;;10.90;87.40;;;;;;5007683;28;20116;-78
2021/11/21 07:57:17;;;;;;;2.20;1.85;;;10.90;87.30;;;;;;5007691;28;20018;-78
2021/11/21 07:59:42;;;;;;;4.35;2.08;;;10.90;87.30;;;;;;5007423;28;20030;-78
2021/11/21 08:02:08;;;;;;;3.22;1.65;;;10.90;87.30;;;;;;5006106;28;20025;-79
2021/11/21 08:04:34;;;;;;;2.60;1.67;;;10.90;87.30;;;;;;5006052;28;20552;-80
2021/11/21 08:06:59;;;;;;;3.33;1.50;;;10.90;87.30;;;;;;5006696;28;20072;-78
2021/11/21 08:09:25;;;;;;;4.32;1.90;;;10.90;87.20;;;;;;5006999;28;20026;-81
2021/11/21 08:11:51;;;;;;;4.25;1.70;;;11.00;87.30;;;;;;5007465;28;20026;-80
2021/11/21 08:14:16;;;;;;;2.90;1.58;;;10.90;87.10;;;;;;5008191;28;20025;-80
2021/11/21 08:16:42;;;;;;;3.08;1.60;;;10.90;87.20;;;;;;5007730;28;20154;-80
2021/11/21 08:19:10;;;;;;;4.38;1.40;;;10.90;87.10;;;;;;5006937;28;20048;-82
2021/11/21 08:21:35;;;;;;;2.55;1.35;;;10.90;87.10;;;;;;5007195;28;20026;-78
2021/11/21 08:24:01;;;;;;;2.70;1.27;;;10.90;87.10;;;;;;5007123;28;20455;-79
2021/11/21 08:26:27;;;;;;;4.80;1.75;;;10.90;87.10;;;;;;5006182;28;20137;-79
2021/11/21 08:28:52;;;;;;;3.95;1.40;;;10.90;87.20;;;;;;5005651;28;20068;-79
2021/11/21 08:31:18;;;;;;;2.33;1.48;;;10.90;87.20;;;;;;5006070;28;20494;-78
2021/11/21 08:33:43;;;;;;;4.03;1.30;;;10.80;87.10;;;;;;5007870;28;20041;-79
2021/11/21 08:36:09;;;;;;;5.05;1.45;;;10.80;87.10;;;;;;5006916;28;20030;-79
2021/11/21 08:38:35;;;;;;;3.55;1.27;;;10.80;87.10;;;;;;5006831;28;20041;-79
2021/11/21 08:41:02;;;;;;;3.40;1.40;;;10.80;87.10;;;;;;5006868;28;20380;-79
2021/11/21 08:43:28;;;;;;;2.17;1.02;;;10.80;87.20;;;;;;5007123;28;20416;-79
2021/11/21 08:45:53;;;;;;;2.70;1.17;;;10.80;87.10;;;;;;5007262;28;20061;-79
2021/11/21 08:48:19;;;;;;;2.83;1.17;;;10.80;87.00;;;;;;5006771;28;20030;-83
2021/11/21 08:50:45;;;;;;;5.05;1.25;;;10.90;87.00;;;;;;5004932;28;20393;-78
2021/11/21 08:53:11;;;;;;;3.50;1.38;;;10.90;87.00;;;;;;5005915;28;20100;-78
2021/11/21 08:55:37;;;;;;;4.70;1.45;;;10.90;87.50;;;;;;5006607;28;20528;-78
2021/11/21 08:58:04;;;;;;;6.13;1.58;;;10.90;86.90;;;;;;5004588;28;20037;-88
2021/11/21 09:00:29;;;;;;;3.83;1.23;;;10.90;87.00;;;;;;5005758;28;20026;-88
2021/11/21 09:02:55;;;;;;;3.78;1.30;;;10.90;87.00;;;;;;5003362;28;20249;-87
2021/11/21 09:05:23;;;;;;;3.13;1.10;;;10.90;86.90;;;;;;5006237;28;20034;-80
2021/11/21 09:07:48;;;;;;;1.95;1.17;;;10.90;86.80;;;;;;5002609;28;20073;-79
2021/11/21 09:10:17;;;;;;;3.97;1.40;;;10.90;86.70;;;;;;5028906;28;20050;-79
2021/11/21 09:12:44;;;;;;;3.80;1.33;;;10.90;86.70;;;;;;5033220;28;20198;-79
2021/11/21 09:15:14;;;;;;;2.83;1.35;;;11.00;86.70;;;;;;5052299;28;20480;-79
2021/11/21 09:17:42;;;;;;;4.82;1.40;;;10.90;86.50;;;;;;5043321;28;20063;-79
2021/11/21 09:20:08;;;;;;;4.20;1.50;;;10.90;86.50;;;;;;5039441;28;20034;-79
2021/11/21 09:22:34;;;;;;;4.38;1.30;;;10.90;86.50;;;;;;5035496;28;20023;-79
2021/11/21 09:25:00;;;;;;;4.07;1.33;;;10.90;86.50;;;;;;5050515;28;20039;-79
2021/11/21 09:27:26;;;;;;;5.82;1.30;;;10.90;86.50;;;;;;5049150;28;20044;-79
2021/11/21 09:29:51;;;;;;;3.63;1.10;;;10.90;86.50;;;;;;5039514;28;20313;-79
2021/11/21 09:32:17;;;;;;;4.43;1.25;;;10.90;86.40;;;;;;5046119;28;20070;-79
2021/11/21 09:34:42;;;;;;;5.78;1.20;;;10.90;86.50;;;;;;5038725;28;20035;-79
2021/11/21 09:37:09;;;;;;;4.28;1.25;;;10.90;86.50;;;;;;5044869;28;20030;-79
2021/11/21 09:39:36;;;;;;;4.55;1.20;;;10.90;86.50;;;;;;5001733;28;20117;-79
2021/11/21 09:42:04;;;;;;;4.28;1.25;;;10.90;86.40;;;;;;5009542;28;20121;-79
2021/11/21 09:44:30;;;;;;;3.70;1.58;;;10.90;86.30;;;;;;4997937;28;20028;-79
2021/11/21 09:46:56;;;;;;;3.80;1.23;;;10.90;86.30;;;;;;4996614;28;20679;-79
2021/11/21 09:49:26;;;;;;;3.40;1.02;;;10.90;86.30;;;;;;4992578;28;20058;-79
2021/11/21 09:51:51;;;;;;;5.38;1.65;;;10.90;86.20;;;;;;5003273;28;20030;-79
2021/11/21 09:54:18;;;;;;;2.83;1.10;;;10.90;86.20;;;;;;5023318;28;20022;-79
2021/11/21 09:56:45;;;;;;;5.25;1.13;;;10.90;86.20;;;;;;5089044;27;20031;-79
2021/11/21 09:59:12;;;;;;;5.50;1.30;;;10.90;86.10;;;;;;5066518;28;20024;-79
2021/11/21 10:01:38;;;;;;;4.18;1.17;;;10.80;86.00;;;;;;5024004;28;20022;-79
2021/11/21 10:04:05;;;;;;;3.83;1.08;;;10.90;86.00;;;;;;5044676;28;20037;-79
2021/11/21 10:06:45;;;;;;;4.55;1.38;;;10.80;85.90;;;;;;5063133;28;20122;-79
2021/11/21 10:09:12;;;;;;;3.95;1.20;;;10.80;85.90;;;;;;5064869;28;20413;-79
2021/11/21 10:11:58;;;;;;;4.65;1.40;;;10.80;86.00;;;;;;5053371;28;20110;-79
2021/11/21 10:14:24;;;;;;;7.47;1.30;;;10.80;85.80;;;;;;5058102;28;20034;-79
2021/11/21 10:16:49;;;;;;;4.97;1.23;;;10.80;85.90;;;;;;5055586;28;20023;-79
2021/11/21 10:19:17;;;;;;;4.22;1.27;;;10.80;85.80;;;;;;5046252;28;20029;-79
2021/11/21 10:21:45;;;;;;;5.75;1.08;;;10.70;85.70;;;;;;5040919;28;20030;-79
2021/11/21 10:24:14;;;;;;;3.10;1.00;;;10.70;85.70;;;;;;5005350;28;20114;-79
2021/11/21 10:26:41;;;;;;;3.38;1.20;;;10.70;85.80;;;;;;5007551;28;20322;-79
2021/11/21 10:29:27;;;;;;;4.40;1.30;;;10.70;85.80;;;;;;4998181;28;20025;-79
2021/11/21 10:31:52;;;;;;;3.90;1.40;;;10.70;85.70;;;;;;4996675;28;20079;-79
2021/11/21 10:34:19;;;;;;;2.15;1.10;;;10.70;85.70;;;;;;5004248;28;20038;-82
2021/11/21 10:36:45;;;;;;;3.55;1.20;;;10.70;85.60;;;;;;5022861;28;20015;-82
2021/11/21 10:39:14;;;;;;;3.33;1.30;;;10.60;85.50;;;;;;4999346;28;20022;-81
2021/11/21 10:41:44;;;;;;;2.88;1.10;;;10.60;85.60;;;;;;5053576;28;20047;-81
2021/11/21 10:44:15;;;;;;;3.42;1.20;;;10.60;85.60;;;;;;5048033;28;20059;-82
2021/11/21 10:46:44;;;;;;;2.92;1.20;;;10.60;85.60;;;;;;5052213;28;20493;-81
2021/11/21 10:49:52;;;;;;;4.30;1.20;;;10.60;85.50;;;;;;5048534;28;20023;-82
2021/11/21 10:52:32;;;;;;;4.07;1.30;;;10.60;85.30;;;;;;5025168;28;20032;-83
2021/11/21 10:54:57;;;;;;;3.45;1.10;;;10.60;85.30;;;;;;5056228;28;20015;-84
2021/11/21 10:57:34;;;;;;;4.25;1.30;;;10.60;85.40;;;;;;5040978;28;20120;-81
2021/11/21 11:00:04;;;;;;;4.28;1.30;;;10.60;85.40;;;;;;5027841;28;20034;-80
2021/11/21 11:02:31;;;;;;;6.05;1.17;;;10.60;85.30;;;;;;5060917;28;20012;-83
2021/11/21 11:05:04;;;;;;;3.15;1.10;;;10.70;85.40;;;;;;5020973;28;20048;-82
2021/11/21 11:07:35;;;;;;;3.85;1.10;;;10.70;85.40;;;;;;5039993;28;20295;-82
2021/11/21 11:10:03;;;;;;;6.45;1.35;;;10.70;85.30;;;;;;5011303;28;20030;-80
2021/11/21 11:12:29;;;;;;;7.07;1.20;;;10.80;85.30;;;;;;5007756;28;20148;-81
2021/11/21 11:14:57;;;;;;;4.93;1.40;;;10.80;85.10;;;;;;5006027;28;20112;-82
2021/11/21 11:17:26;;;;;;;5.07;1.25;;;10.90;85.00;;;;;;5028656;28;20121;-85
2021/11/21 11:20:00;;;;;;;4.82;1.30;;;10.90;84.90;;;;;;5003078;28;20061;-82
2021/11/21 11:22:27;;;;;;;6.88;1.45;;;10.90;84.80;;;;;;5005960;28;20078;-82
2021/11/21 11:24:55;;;;;;;4.03;1.20;;;10.90;84.60;;;;;;5002643;28;20030;-81
2021/11/21 11:27:35;;;;;;;4.75;1.40;;;11.00;84.60;;;;;;5015783;28;20056;-80
2021/11/21 11:30:02;;;;;;;2.55;1.38;;;11.00;84.60;;;;;;5023941;28;20022;-79
2021/11/21 11:32:37;;;;;;;4.88;1.30;;;11.00;84.50;;;;;;5036449;28;20041;-81
2021/11/21 11:35:22;;;;;;;4.13;1.27;;;11.10;84.40;;;;;;5022549;28;20121;-78
2021/11/21 11:37:53;;;;;;;3.03;1.52;;;11.10;84.30;;;;;;5016716;28;20479;-78
2021/11/21 11:40:33;;;;;;;4.68;1.20;;;11.10;84.00;;;;;;5026788;28;20074;-78
2021/11/21 11:43:16;;;;;;;3.83;1.25;;;11.10;84.00;;;;;;5024592;28;20042;-76
2021/11/21 11:45:43;;;;;;;;;;;11.20;84.00;;;;;;5018134;28;20046;-77
2021/11/21 11:48:33;;;;;;;2.92;1.10;;;11.30;83.80;;;;;;5026625;28;20008;-77
2021/11/21 11:51:08;;;;;;;4.90;1.30;;;11.30;83.70;;;;;;5025125;28;20023;-78
2021/11/21 11:53:34;;;;;;;5.75;1.25;;;11.30;83.50;;;;;;5022557;28;20115;-78
2021/11/21 11:56:09;;;;;;;7.07;1.20;;;11.30;83.30;;;;;;5006946;28;20106;-84
2021/11/21 11:58:51;;;;;;;4.10;1.23;;;11.40;83.20;;;;;;5004370;28;20535;-84
2021/11/21 12:01:32;;;;;;;4.57;1.10;;;11.40;82.70;;;;;;5006162;28;20030;-85
2021/11/21 12:03:59;;;;;;;2.72;1.00;;;11.50;82.60;;;;;;5006483;28;20036;-84
2021/11/21 12:06:42;;;;;;;3.63;1.10;;;11.50;82.40;;;;;;5009618;28;20509;-85
2021/11/21 12:09:22;;;;;;;3.25;1.15;;;11.50;82.00;;;;;;5002606;28;20656;-85
2021/11/21 12:12:04;;;;;;;2.72;0.95;;;11.60;82.00;;;;;;5004755;28;20078;-84
2021/11/21 12:14:41;;;;;;;6.03;1.10;;;11.60;81.80;;;;;;5007366;28;20125;-84
2021/11/21 12:17:11;;;;;;;3.95;1.20;;;11.60;81.60;;;;;;5005957;28;20022;-78
2021/11/21 12:19:46;;;;;;;4.43;1.10;;;11.60;81.30;;;;;;5005106;28;20100;-79
2021/11/21 12:22:27;;;;;;;3.17;1.08;;;11.60;81.10;;;;;;5004957;28;20133;-79
2021/11/21 12:24:57;;;;;;;3.92;1.10;;;11.50;81.00;;;;;;5006318;28;20454;-79
2021/11/21 12:27:26;;;;;;;4.60;1.40;;;11.60;81.10;;;;;;5005655;28;20364;-79
2021/11/21 12:30:06;;;;;;;5.05;1.20;;;11.60;80.80;;;;;;5036525;28;20121;-83
2021/11/21 12:32:33;;;;;;;2.55;0.98;;;11.60;80.60;;;;;;5006152;28;20034;-77
2021/11/21 12:35:02;;;;;;;1.92;0.93;;;11.60;80.60;;;;;;5005818;28;20029;-78
2021/11/21 12:37:35;;;;;;;3.30;0.90;;;11.60;80.30;;;;;;5004341;28;20452;-78
2021/11/21 12:40:06;;;;;;;4.65;1.00;;;11.60;80.10;;;;;;5003551;28;20058;-78
2021/11/21 12:42:32;;;;;;;4.18;1.10;;;11.70;79.80;;;;;;5006818;28;20068;-78